.
WxDataArchive / Data Records for 2007-02-07
2007-02-06 February 2007 2007-02-08

Data Records for Wednesday, 07 February 2007

Time	Temp	Chill	HIndex	Humid	Dewpt	 Wind 	HiWind	WindDir	Rain 	Barom 
-----	----	-----	------	-----	-----	------	------	-------	-----	----- 
00:00	7.4	7.4	7.4	78	2.0	0	1	68	0.00	30.118 
00:05	7.4	7.4	7.4	79	2.3	0	0	---	0.00	30.118 
00:10	7.6	7.6	7.6	79	2.5	0	0	---	0.00	30.118 
00:15	7.6	7.6	7.6	79	2.5	0	1	68	0.00	30.110 
00:20	7.6	7.6	7.6	78	2.2	0	1	68	0.00	30.110 
00:25	7.6	7.6	7.6	78	2.2	0	0	---	0.00	30.110 
00:30	7.6	7.6	7.6	78	2.2	0	1	68	0.00	30.112 
00:35	7.6	7.6	7.6	78	2.2	0	1	68	0.00	30.112 
00:40	7.6	7.6	7.6	78	2.2	0	1	68	0.00	30.112 
00:45	7.6	7.6	7.6	78	2.2	0	0	---	0.00	30.113 
00:50	7.6	7.6	7.6	78	2.2	0	0	---	0.00	30.113 
00:55	7.6	7.6	7.6	78	2.2	0	0	---	0.00	30.113 
01:00	7.6	7.6	7.6	78	2.2	0	0	---	0.00	30.112 
01:05	7.6	7.6	7.6	78	2.2	0	0	---	0.00	30.112 
01:10	7.6	7.6	7.6	78	2.2	0	0	---	0.00	30.112 
01:15	7.4	7.4	7.4	78	2.0	0	0	---	0.00	30.118 
01:20	7.4	7.4	7.4	78	2.0	0	0	---	0.00	30.118 
01:25	7.2	7.2	7.2	78	1.8	0	0	---	0.00	30.118 
01:30	7.2	7.2	7.2	78	1.8	0	0	---	0.00	30.127 
01:35	7.0	7.0	7.0	78	1.6	0	0	---	0.00	30.127 
01:40	7.2	7.2	7.2	78	1.8	0	1	68	0.00	30.127 
01:45	7.2	7.2	7.2	79	2.1	0	0	---	0.00	30.128 
01:50	7.2	7.2	7.2	79	2.1	0	1	68	0.00	30.128 
01:55	7.4	7.4	7.4	79	2.3	0	1	68	0.00	30.128 
02:00	7.4	7.4	7.4	79	2.3	0	1	68	0.00	30.127 
02:05	7.6	7.6	7.6	79	2.5	0	1	68	0.00	30.127 
02:10	7.6	7.6	7.6	79	2.5	0	1	68	0.00	30.127 
02:15	7.7	7.7	7.7	79	2.6	0	1	68	0.00	30.129 
02:20	7.7	7.7	7.7	78	2.3	0	1	68	0.00	30.129 
02:25	7.7	7.7	7.7	78	2.3	0	2	315	0.00	30.129 
02:30	7.7	7.7	7.7	78	2.3	0	1	315	0.00	30.131 
02:35	7.7	7.7	7.7	78	2.3	0	1	315	0.00	30.131 
02:40	7.7	7.7	7.7	78	2.3	0	1	315	0.00	30.131 
02:45	7.9	7.9	7.9	78	2.5	0	1	315	0.00	30.138 
02:50	7.9	7.9	7.9	78	2.5	0	1	315	0.00	30.138 
02:55	7.9	7.9	7.9	78	2.5	0	1	315	0.00	30.138 
03:00	7.9	7.9	7.9	78	2.5	0	1	315	0.00	30.140 
03:05	7.9	7.9	7.9	77	2.2	0	1	315	0.00	30.140 
03:10	7.9	7.9	7.9	77	2.2	0	3	248	0.00	30.140 
03:15	7.9	7.9	7.9	77	2.2	0	1	248	0.00	30.144 
03:20	7.7	7.7	7.7	77	2.0	0	1	248	0.00	30.144 
03:25	7.7	7.7	7.7	77	2.0	0	1	248	0.00	30.144 
03:30	7.6	7.6	7.6	77	1.9	0	2	270	0.00	30.145 
03:35	7.6	7.6	7.6	77	1.9	0	1	270	0.00	30.145 
03:40	7.4	7.4	7.4	77	1.7	0	1	270	0.00	30.145 
03:45	7.4	7.4	7.4	77	1.7	0	1	270	0.00	30.146 
03:50	7.4	7.4	7.4	77	1.7	0	1	270	0.00	30.146 
03:55	7.4	7.4	7.4	77	1.7	0	1	270	0.00	30.146 
04:00	7.6	7.6	7.6	78	2.2	0	1	270	0.00	30.154 
04:05	7.6	7.6	7.6	78	2.2	0	2	248	0.00	30.154 
04:10	7.7	7.7	7.7	78	2.3	0	1	248	0.00	30.154 
04:15	7.7	7.7	7.7	78	2.3	0	2	248	0.00	30.154 
04:20	7.7	7.7	7.7	78	2.3	0	1	248	0.00	30.154 
04:25	7.9	7.9	7.9	78	2.5	0	1	248	0.00	30.154 
04:30	7.9	7.9	7.9	78	2.5	0	2	248	0.00	30.160 
04:35	7.9	7.9	7.9	78	2.5	0	1	248	0.00	30.160 
04:40	7.9	7.9	7.9	78	2.5	0	1	248	0.00	30.160 
04:45	8.1	8.1	8.1	78	2.7	0	1	248	0.00	30.170 
04:50	8.3	8.3	8.3	78	2.9	0	1	248	0.00	30.170 
04:55	8.3	8.3	8.3	78	2.9	0	1	248	0.00	30.170 
05:00	8.3	8.3	8.3	78	2.9	1	2	0	0.00	30.171 
05:05	8.3	8.3	8.3	77	2.6	0	3	248	0.00	30.171 
05:10	8.1	8.1	8.1	77	2.4	0	2	270	0.00	30.171 
05:15	7.9	7.9	7.9	77	2.2	0	1	270	0.00	30.176 
05:20	7.7	7.7	7.7	77	2.0	0	1	270	0.00	30.176 
05:25	7.4	7.4	7.4	77	1.7	0	1	270	0.00	30.176 
05:30	7.0	7.0	7.0	77	1.3	0	1	270	0.00	30.179 
05:35	6.7	6.7	6.7	77	1.0	0	1	270	0.00	30.179 
05:40	6.3	6.3	6.3	77	0.7	0	1	270	0.00	30.179 
05:45	6.0	6.0	6.0	77	0.4	0	1	270	0.00	30.189 
05:50	5.6	5.6	5.6	77	-0.0	0	0	---	0.00	30.189 
05:55	5.2	5.2	5.2	77	-0.4	0	0	---	0.00	30.189 
06:00	4.8	4.8	4.8	78	-0.5	0	0	---	0.00	30.198 
06:05	4.7	4.7	4.7	78	-0.6	0	0	---	0.00	30.198 
06:10	4.3	4.3	4.3	79	-0.7	0	0	---	0.00	30.198 
06:15	4.1	4.1	4.1	79	-0.9	0	0	---	0.00	30.209 
06:20	3.9	3.9	3.9	80	-0.9	0	0	---	0.00	30.209 
06:25	3.9	3.9	3.9	80	-0.9	0	1	270	0.00	30.209 
06:30	3.9	3.9	3.9	80	-0.9	0	1	270	0.00	30.212 
06:35	4.1	4.1	4.1	81	-0.4	0	2	270	0.00	30.212 
06:40	4.1	4.1	4.1	81	-0.4	0	1	270	0.00	30.212 
06:45	4.3	4.3	4.3	81	-0.2	0	2	270	0.00	30.220 
06:50	4.5	4.5	4.5	81	-0.0	0	2	270	0.00	30.220 
06:55	4.5	4.5	4.5	81	-0.0	0	1	270	0.00	30.220 
07:00	4.5	4.5	4.5	81	-0.0	0	2	270	0.00	30.222 
07:05	4.5	4.5	4.5	81	-0.0	0	2	270	0.00	30.222 
07:10	4.5	4.5	4.5	81	-0.0	0	2	248	0.00	30.222 
07:15	4.5	4.5	4.5	81	-0.0	0	2	248	0.00	30.224 
07:20	4.5	4.5	4.5	81	-0.0	0	2	248	0.00	30.224 
07:25	4.5	4.5	4.5	81	-0.0	0	2	248	0.00	30.224 
07:30	4.7	4.7	4.7	81	0.2	1	3	248	0.00	30.231 
07:35	4.7	4.7	4.7	81	0.2	1	2	248	0.00	30.231 
07:40	4.8	4.8	4.8	81	0.3	0	2	248	0.00	30.231 
07:45	4.8	4.8	4.8	81	0.3	1	3	248	0.00	30.241 
07:50	5.0	5.0	5.0	81	0.5	1	4	248	0.00	30.241 
07:55	5.2	5.2	5.2	81	0.7	1	4	248	0.00	30.241 
08:00	5.4	5.4	5.4	81	0.9	1	6	248	0.00	30.249 
08:05	5.4	5.4	5.4	81	0.9	1	4	248	0.00	30.249 
08:10	5.4	5.4	5.4	81	0.9	0	2	248	0.00	30.249 
08:15	5.2	5.2	5.2	80	0.4	1	5	248	0.00	30.255 
08:20	5.2	5.2	5.2	80	0.4	1	4	248	0.00	30.255 
08:25	5.4	5.4	5.4	80	0.6	1	4	248	0.00	30.255 
08:30	5.2	5.2	5.2	80	0.4	1	4	270	0.00	30.261 
08:35	5.2	5.2	5.2	79	0.1	1	4	248	0.00	30.261 
08:40	5.2	5.2	5.2	79	0.1	1	4	248	0.00	30.261 
08:45	5.4	5.4	5.4	79	0.3	1	4	248	0.00	30.267 
08:50	5.8	5.8	5.8	79	0.7	2	5	248	0.00	30.267 
08:55	6.0	6.0	6.0	78	0.6	2	6	248	0.00	30.267 
09:00	6.1	6.1	6.1	78	0.7	1	4	248	0.00	30.270 
09:05	6.5	6.5	6.5	78	1.1	1	5	270	0.00	30.270 
09:10	7.0	7.0	7.0	77	1.3	1	5	248	0.00	30.270 
09:15	7.2	7.2	7.2	77	1.5	1	3	248	0.00	30.271 
09:20	7.6	7.6	7.6	76	1.6	2	5	248	0.00	30.271 
09:25	7.9	7.9	7.9	76	1.9	1	3	248	0.00	30.271 
09:30	8.4	8.4	8.4	75	2.1	1	3	248	0.00	30.275 
09:35	8.6	8.6	8.6	74	2.0	2	5	270	0.00	30.275 
09:40	8.4	8.4	8.4	73	1.6	1	4	270	0.00	30.275 
09:45	8.3	8.3	8.3	73	1.5	2	4	270	0.00	30.274 
09:50	8.4	8.4	8.4	73	1.6	2	6	270	0.00	30.274 
09:55	8.8	8.8	8.8	73	1.9	1	3	225	0.00	30.274 
10:00	9.3	9.3	9.3	73	2.4	2	4	248	0.00	30.274 
10:05	9.7	9.7	9.7	72	2.5	2	5	248	0.00	30.274 
10:10	10.0	10.0	10.0	71	2.5	2	5	270	0.00	30.274 
10:15	10.2	10.2	10.2	71	2.7	2	10	270	0.00	30.277 
10:20	10.4	10.4	10.4	71	2.9	2	6	270	0.00	30.277 
10:25	10.5	10.5	10.5	70	2.7	2	5	270	0.00	30.277 
10:30	10.7	10.7	10.7	70	2.9	2	6	248	0.00	30.272 
10:35	10.9	10.9	10.9	70	3.1	3	6	270	0.00	30.272 
10:40	11.2	11.2	11.2	70	3.4	2	5	248	0.00	30.272 
10:45	11.7	11.7	11.7	69	3.5	2	4	270	0.00	30.274 
10:50	11.9	11.9	11.9	69	3.7	2	4	270	0.00	30.274 
10:55	12.1	12.1	12.1	69	3.9	2	5	270	0.01	30.274 
11:00	12.3	12.3	12.3	69	4.1	2	5	270	0.00	30.275 
11:05	12.1	12.1	12.1	68	3.6	3	10	270	0.00	30.275 
11:10	12.3	12.3	12.3	69	4.1	2	5	292	0.00	30.275 
11:15	12.6	12.6	12.6	68	4.1	2	5	270	0.00	30.270 
11:20	12.9	12.9	12.9	68	4.4	2	7	270	0.00	30.270 
11:25	13.1	13.1	13.1	68	4.6	2	6	270	0.00	30.270 
11:30	13.3	13.3	13.3	68	4.7	2	5	270	0.00	30.275 
11:35	13.5	13.5	13.5	67	4.6	2	7	270	0.00	30.275 
11:40	13.6	13.6	13.6	67	4.7	3	5	270	0.00	30.275 
11:45	13.8	13.8	13.8	66	4.6	2	6	270	0.00	30.276 
11:50	13.8	13.8	13.8	66	4.6	2	6	270	0.00	30.276 
11:55	13.8	13.8	13.8	65	4.2	2	9	270	0.00	30.276 
12:00	14.0	14.0	14.0	66	4.8	2	4	270	0.00	30.275 
12:05	14.0	14.0	14.0	65	4.4	2	6	270	0.00	30.275 
12:10	14.3	14.3	14.3	65	4.7	2	5	270	0.00	30.275 
12:15	14.3	14.3	14.3	65	4.7	2	6	270	0.00	30.265 
12:20	14.1	14.1	14.1	64	4.2	3	7	270	0.00	30.265 
12:25	14.3	14.3	14.3	65	4.7	2	6	270	0.00	30.265 
12:30	14.4	14.4	14.4	65	4.8	2	5	270	0.00	30.260 
12:35	14.6	14.6	14.6	65	5.0	2	5	270	0.00	30.260 
12:40	14.9	14.9	14.9	63	4.6	2	4	270	0.00	30.260 
12:45	14.9	14.9	14.9	64	5.0	2	4	270	0.00	30.260 
12:50	14.9	14.9	14.9	62	4.3	3	9	270	0.00	30.260 
12:55	15.1	15.1	15.1	63	4.8	2	4	270	0.00	30.260 
13:00	15.6	15.6	15.6	62	4.9	2	4	248	0.00	30.254 
13:05	15.4	15.4	15.4	62	4.7	2	6	270	0.00	30.254 
13:10	15.6	15.6	15.6	62	4.9	3	7	270	0.00	30.254 
13:15	15.7	15.7	15.7	63	5.4	2	7	270	0.00	30.245 
13:20	15.9	15.9	15.9	61	4.9	3	5	248	0.00	30.245 
13:25	15.9	15.9	15.9	61	4.9	2	5	270	0.00	30.245 
13:30	16.2	16.2	16.2	61	5.1	2	6	270	0.00	30.243 
13:35	16.4	16.4	16.4	60	5.0	2	6	270	0.00	30.243 
13:40	16.4	16.4	16.4	61	5.3	2	7	270	0.00	30.243 
13:45	16.4	16.4	16.4	61	5.3	2	7	270	0.00	30.239 
13:50	16.4	16.4	16.4	61	5.3	2	7	270	0.00	30.239 
13:55	16.5	16.5	16.5	59	4.7	3	9	270	0.00	30.239 
14:00	16.4	16.4	16.4	60	5.0	3	7	270	0.00	30.229 
14:05	16.2	16.2	16.2	59	4.4	3	9	270	0.00	30.229 
14:10	16.2	16.2	16.2	59	4.4	3	10	270	0.00	30.229 
14:15	16.2	16.2	16.2	60	4.8	2	7	270	0.00	30.225 
14:20	16.2	16.2	16.2	59	4.4	3	13	270	0.00	30.225 
14:25	16.2	16.2	16.2	60	4.8	3	7	270	0.00	30.225 
14:30	16.4	16.4	16.4	60	5.0	2	7	270	0.00	30.220 
14:35	16.5	16.5	16.5	61	5.4	2	7	248	0.00	30.220 
14:40	16.9	16.9	16.9	59	5.1	2	6	270	0.00	30.220 
14:45	16.7	16.7	16.7	59	4.9	3	10	270	0.00	30.213 
14:50	16.5	10.2	16.5	59	4.7	4	10	270	0.00	30.213 
14:55	16.2	16.2	16.2	60	4.8	3	14	270	0.00	30.213 
15:00	16.2	16.2	16.2	59	4.4	2	6	270	0.00	30.216 
15:05	15.7	9.2	15.7	59	4.0	4	12	270	0.00	30.216 
15:10	14.9	14.9	14.9	60	3.6	3	10	270	0.00	30.216 
15:15	15.1	15.1	15.1	61	4.1	2	11	270	0.00	30.221 
15:20	15.4	15.4	15.4	61	4.4	3	8	270	0.00	30.221 
15:25	15.4	8.9	15.4	59	3.7	4	10	270	0.00	30.221 
15:30	15.2	7.3	15.2	59	3.5	5	12	270	0.00	30.222 
15:35	15.2	15.2	15.2	60	3.8	3	11	270	0.00	30.222 
15:40	14.9	14.9	14.9	60	3.6	3	11	270	0.00	30.222 
15:45	14.8	14.8	14.8	60	3.5	3	6	270	0.00	30.222 
15:50	14.6	14.6	14.6	60	3.3	3	9	270	0.00	30.222 
15:55	14.6	14.6	14.6	60	3.3	3	7	270	0.00	30.222 
16:00	14.6	8.0	14.6	59	2.9	4	9	270	0.00	30.225 
16:05	14.3	6.3	14.3	60	3.0	5	12	270	0.00	30.225 
16:10	13.8	13.8	13.8	60	2.5	3	8	270	0.00	30.225 
16:15	13.5	13.5	13.5	61	2.6	3	7	270	0.00	30.222 
16:20	13.6	13.6	13.6	61	2.7	3	7	270	0.00	30.222 
16:25	13.3	13.3	13.3	61	2.4	3	11	270	0.00	30.222 
16:30	13.1	13.1	13.1	62	2.6	3	10	270	0.00	30.225 
16:35	12.9	12.9	12.9	62	2.4	3	11	270	0.00	30.225 
16:40	12.8	12.8	12.8	62	2.3	3	9	270	0.00	30.225 
16:45	12.8	12.8	12.8	62	2.3	2	6	270	0.00	30.226 
16:50	12.6	12.6	12.6	62	2.1	2	9	270	0.00	30.226 
16:55	12.3	12.3	12.3	62	1.8	2	5	270	0.00	30.226 
17:00	12.1	12.1	12.1	62	1.6	2	6	270	0.00	30.226 
17:05	11.6	11.6	11.6	62	1.1	2	7	270	0.00	30.226 
17:10	11.2	11.2	11.2	62	0.8	2	7	270	0.00	30.226 
17:15	11.1	11.1	11.1	62	0.7	1	6	248	0.00	30.227 
17:20	10.7	10.7	10.7	62	0.3	2	9	270	0.00	30.227 
17:25	10.5	10.5	10.5	62	0.1	2	9	270	0.00	30.227 
17:30	10.4	10.4	10.4	62	-0.0	2	5	270	0.00	30.227 
17:35	10.2	10.2	10.2	62	-0.2	2	8	270	0.00	30.227 
17:40	10.0	10.0	10.0	62	-0.4	1	4	270	0.00	30.227 
17:45	9.9	9.9	9.9	62	-0.5	2	10	270	0.00	30.234 
17:50	9.7	9.7	9.7	62	-0.7	1	4	248	0.00	30.234 
17:55	9.5	9.5	9.5	61	-1.2	1	6	248	0.00	30.234 
18:00	9.2	9.2	9.2	61	-1.5	2	6	248	0.00	30.236 
18:05	9.0	9.0	9.0	62	-1.3	2	10	270	0.00	30.236 
18:10	8.6	8.6	8.6	61	-2.1	1	5	248	0.00	30.236 
18:15	8.4	8.4	8.4	60	-2.6	3	12	270	0.00	30.240 
18:20	8.1	8.1	8.1	60	-2.9	1	5	270	0.00	30.240 
18:25	7.9	7.9	7.9	59	-3.4	1	6	270	0.00	30.240 
18:30	7.6	7.6	7.6	59	-3.7	2	11	248	0.00	30.247 
18:35	7.4	7.4	7.4	59	-3.9	1	6	270	0.00	30.247 
18:40	7.2	7.2	7.2	58	-4.4	2	7	270	0.00	30.247 
18:45	7.0	7.0	7.0	58	-4.6	3	10	270	0.00	30.248 
18:50	6.9	6.9	6.9	57	-5.1	3	10	270	0.00	30.248 
18:55	6.9	6.9	6.9	57	-5.1	1	3	248	0.00	30.248 
19:00	6.7	6.7	6.7	58	-4.9	1	7	248	0.00	30.253 
19:05	6.5	6.5	6.5	58	-5.1	2	9	270	0.00	30.253 
19:10	6.3	6.3	6.3	59	-4.9	1	6	270	0.00	30.253 
19:15	6.3	6.3	6.3	59	-4.9	1	5	248	0.00	30.255 
19:20	6.1	6.1	6.1	59	-5.1	2	6	270	0.00	30.255 
19:25	6.0	6.0	6.0	59	-5.2	1	10	248	0.00	30.255 
19:30	6.0	6.0	6.0	59	-5.2	2	9	270	0.00	30.256 
19:35	6.0	6.0	6.0	58	-5.6	3	10	270	0.00	30.256 
19:40	5.8	5.8	5.8	58	-5.8	2	7	270	0.00	30.254 
19:45	5.6	5.6	5.6	59	-5.6	2	9	248	0.00	30.254 
19:50	5.4	5.4	5.4	59	-5.8	3	10	270	0.00	30.254 
19:55	5.4	5.4	5.4	59	-5.8	2	7	270	0.00	30.254 
20:00	5.2	5.2	5.2	60	-5.6	2	10	270	0.00	30.255 
20:05	5.0	5.0	5.0	60	-5.8	2	7	248	0.00	30.255 
20:10	5.0	5.0	5.0	60	-5.8	2	7	270	0.00	30.254 
20:15	4.8	4.8	4.8	60	-6.0	2	11	270	0.00	30.252 
20:20	4.8	4.8	4.8	60	-6.0	2	6	270	0.00	30.251 
20:25	4.7	4.7	4.7	60	-6.1	3	7	270	0.00	30.250 
20:30	4.5	4.5	4.5	60	-6.3	2	7	270	0.00	30.249 
20:35	4.3	4.3	4.3	60	-6.5	1	5	270	0.00	30.247 
20:40	4.3	4.3	4.3	60	-6.5	2	7	248	0.00	30.244 
20:45	4.1	4.1	4.1	60	-6.7	1	4	270	0.00	30.241 
20:50	4.1	4.1	4.1	60	-6.7	2	5	270	0.00	30.240 
20:55	3.9	3.9	3.9	60	-6.8	1	5	248	0.00	30.240 
21:00	3.9	3.9	3.9	60	-6.8	2	9	270	0.00	30.240 
21:05	3.7	3.7	3.7	60	-7.0	2	9	270	0.00	30.237 
21:10	3.7	3.7	3.7	60	-7.0	2	4	270	0.00	30.235 
21:15	3.5	3.5	3.5	60	-7.2	2	6	270	0.00	30.233 
21:20	3.5	3.5	3.5	60	-7.2	2	6	270	0.00	30.229 
21:25	3.4	3.4	3.4	60	-7.3	1	7	248	0.00	30.229 
21:30	3.2	3.2	3.2	60	-7.5	1	4	248	0.00	30.226 
21:35	3.2	3.2	3.2	61	-7.2	1	5	270	0.00	30.227 
21:40	3.2	3.2	3.2	61	-7.2	1	6	270	0.00	30.224 
21:45	3.2	3.2	3.2	61	-7.2	2	5	270	0.00	30.223 
21:50	3.2	3.2	3.2	61	-7.2	2	6	270	0.00	30.222 
21:55	3.0	3.0	3.0	61	-7.4	1	4	248	0.00	30.223 
22:00	3.0	3.0	3.0	61	-7.4	2	9	270	0.00	30.223 
22:05	2.8	2.8	2.8	62	-7.2	1	7	270	0.00	30.223 
22:10	2.8	2.8	2.8	62	-7.2	2	6	270	0.00	30.224 
22:15	2.6	2.6	2.6	62	-7.4	2	7	270	0.00	30.221 
22:20	2.6	2.6	2.6	62	-7.4	2	6	248	0.00	30.220 
22:25	2.4	2.4	2.4	62	-7.6	1	3	270	0.00	30.221 
22:30	2.4	2.4	2.4	63	-7.3	2	10	270	0.00	30.221 
22:35	2.2	2.2	2.2	63	-7.5	2	7	270	0.00	30.220 
22:40	2.2	2.2	2.2	63	-7.5	2	9	270	0.00	30.220 
22:45	2.0	2.0	2.0	63	-7.7	1	10	270	0.00	30.219 
22:50	2.0	2.0	2.0	64	-7.3	2	7	270	0.00	30.218 
22:55	2.0	2.0	2.0	64	-7.3	1	4	270	0.00	30.219 
23:00	2.0	2.0	2.0	64	-7.3	1	4	270	0.00	30.220 
23:05	2.0	2.0	2.0	64	-7.3	1	4	270	0.00	30.219 
23:10	2.0	2.0	2.0	64	-7.3	1	3	248	0.00	30.218 
23:15	1.8	1.8	1.8	64	-7.5	1	4	270	0.00	30.216 
23:20	1.8	1.8	1.8	64	-7.5	2	5	270	0.00	30.213 
23:25	1.8	1.8	1.8	64	-7.5	1	4	248	0.00	30.211 
23:30	1.8	1.8	1.8	64	-7.5	2	8	270	0.00	30.215 
23:35	1.7	1.7	1.7	64	-7.6	1	6	270	0.00	30.215 
23:40	1.7	1.7	1.7	64	-7.6	2	9	248	0.00	30.217 
23:45	1.7	1.7	1.7	64	-7.6	2	7	248	0.00	30.217 
23:50	1.5	1.5	1.5	64	-7.8	3	9	270	0.00	30.217 
23:55	1.5	1.5	1.5	64	-7.8	2	8	270	0.00	30.216 

CoCoRaHS
IN-AL-39
A2 Web Hosting
Creative Commons License
GoDaddy
Look for:

loaded 2017-10-16 18:36:18 • last modified 2010-11-18 10:43:29
Privacy PolicyDisclaimer
• wx.awcolley.com is powered by PmWiki v.2002016 •
• all content (unless otherwise noted) © 2017 A W Colley